createdAt,value
2018-06-25T03:01:00.834Z,993.16
2018-06-25T03:02:01.280Z,993.18
2018-06-25T03:04:34.524Z,993.18
2018-06-25T03:05:35.333Z,993.19
2018-06-25T03:06:33.454Z,993.21
2018-06-25T03:07:33.675Z,993.19
2018-06-25T03:08:33.770Z,993.18
2018-06-25T03:09:33.970Z,993.17
2018-06-25T03:10:34.103Z,993.14
2018-06-25T03:11:34.284Z,993.16
2018-06-25T03:12:34.443Z,993.17
2018-06-25T03:13:34.701Z,993.17
2018-06-25T03:14:34.819Z,993.19
2018-06-25T03:15:34.985Z,993.17
2018-06-25T03:16:35.075Z,993.18
2018-06-25T03:17:35.242Z,993.19
2018-06-25T03:18:35.396Z,993.17
2018-06-25T03:19:35.558Z,993.17
2018-06-25T03:20:35.745Z,993.17
2018-06-25T03:21:36.703Z,993.20
2018-06-25T03:22:36.098Z,993.22
2018-06-25T03:23:36.235Z,993.20
2018-06-25T03:24:36.442Z,993.23
2018-06-25T03:25:36.623Z,993.17
2018-06-25T03:26:36.775Z,993.17
2018-06-25T03:27:36.989Z,993.20
2018-06-25T03:28:37.137Z,993.20
2018-06-25T03:29:37.264Z,993.22
2018-06-25T03:30:37.466Z,993.23
2018-06-25T03:31:37.615Z,993.24
2018-06-25T03:32:37.825Z,993.26
2018-06-25T03:33:37.935Z,993.24
2018-06-25T03:34:38.141Z,993.25
2018-06-25T03:35:38.307Z,993.24
2018-06-25T03:36:38.459Z,993.26
2018-06-25T03:37:38.666Z,993.26
2018-06-25T03:38:38.826Z,993.26
2018-06-25T03:39:38.904Z,993.29
2018-06-25T03:40:39.134Z,993.28
2018-06-25T03:41:39.333Z,993.32
2018-06-25T03:42:39.488Z,993.31
2018-06-25T03:43:39.629Z,993.30
2018-06-25T03:44:39.838Z,993.28
2018-06-25T03:45:39.933Z,993.29
2018-06-25T03:46:40.141Z,993.29
2018-06-25T03:47:40.202Z,993.32
2018-06-25T03:48:40.364Z,993.31
2018-06-25T03:49:40.550Z,993.31
2018-06-25T03:50:40.716Z,993.30
2018-06-25T03:51:40.983Z,993.32
2018-06-25T03:52:41.102Z,993.32
2018-06-25T03:53:41.317Z,993.31
2018-06-25T03:54:41.466Z,993.36
2018-06-25T03:55:41.576Z,993.35
2018-06-25T03:56:41.781Z,993.38
2018-06-25T03:57:41.969Z,993.38
2018-06-25T03:58:42.173Z,993.40
2018-06-25T03:59:42.359Z,993.41
2018-06-25T04:00:42.699Z,993.42
2018-06-25T04:01:42.728Z,993.39
2018-06-25T04:02:42.868Z,993.44
2018-06-25T04:03:42.933Z,993.44
2018-06-25T04:04:43.172Z,993.44
2018-06-25T04:05:43.334Z,993.47
2018-06-25T04:06:43.572Z,993.50
2018-06-25T04:07:43.686Z,993.50
2018-06-25T04:08:43.860Z,993.55
2018-06-25T04:09:44.072Z,993.52
2018-06-25T04:10:44.105Z,993.54
2018-06-25T04:11:44.342Z,993.58
2018-06-25T04:12:44.546Z,993.52
2018-06-25T04:13:44.629Z,993.60
2018-06-25T04:14:44.778Z,993.53
2018-06-25T04:15:44.984Z,993.57
2018-06-25T04:16:45.166Z,993.56
2018-06-25T04:17:45.380Z,993.59
2018-06-25T04:18:45.550Z,993.59
2018-06-25T04:19:45.687Z,993.60
2018-06-25T04:20:45.912Z,993.59
2018-06-25T04:21:45.983Z,993.58
2018-06-25T04:22:46.160Z,993.64
2018-06-25T04:23:46.299Z,993.63
2018-06-25T04:24:46.530Z,993.62
2018-06-25T04:25:46.654Z,993.64
2018-06-25T04:26:46.901Z,993.62
2018-06-25T04:27:47.029Z,993.69
2018-06-25T04:28:47.204Z,993.71
2018-06-25T04:29:47.398Z,993.76
2018-06-25T04:30:47.626Z,993.72
2018-06-25T04:31:47.654Z,993.76
2018-06-25T04:32:47.858Z,993.75
2018-06-25T04:33:48.032Z,993.81
2018-06-25T04:34:48.149Z,993.81
2018-06-25T04:35:48.350Z,993.81
2018-06-25T04:36:48.474Z,993.85
2018-06-25T04:37:48.653Z,993.84
2018-06-25T04:38:48.914Z,993.84
2018-06-25T04:39:48.981Z,993.82
2018-06-25T04:40:49.150Z,993.86
2018-06-25T04:41:49.350Z,993.86
2018-06-25T04:42:49.584Z,993.91
2018-06-25T04:43:49.663Z,993.88
2018-06-25T04:44:49.872Z,993.90
2018-06-25T04:45:50.167Z,993.96
2018-06-25T04:46:55.673Z,993.93
2018-06-25T04:51:16.010Z,993.95
2018-06-25T04:52:16.232Z,993.96
2018-06-25T04:55:18.147Z,994.01
2018-06-25T04:55:19.170Z,994.00
2018-06-25T04:56:18.414Z,994.02
2018-06-25T04:57:18.575Z,994.04
2018-06-25T04:58:18.610Z,994.02
2018-06-25T04:59:19.097Z,994.03
2018-06-25T05:00:18.935Z,994.02
2018-06-25T05:01:19.627Z,993.99
2018-06-25T05:02:19.397Z,993.96
2018-06-25T05:03:19.505Z,994.04
2018-06-25T05:04:19.822Z,994.07
2018-06-25T05:06:20.134Z,994.09
2018-06-25T05:07:20.694Z,994.09
2018-06-25T05:08:20.456Z,994.09
2018-06-25T05:09:20.577Z,994.06
2018-06-25T05:10:20.726Z,994.07
2018-06-25T05:11:20.910Z,994.03
2018-06-25T05:12:21.093Z,994.04
2018-06-25T05:13:21.364Z,994.10
2018-06-25T05:14:21.497Z,994.12
2018-06-25T05:15:21.656Z,994.10
2018-06-25T05:16:21.770Z,994.08
2018-06-25T05:17:21.971Z,994.09
2018-06-25T05:18:22.173Z,994.08
2018-06-25T05:19:22.245Z,994.10
2018-06-25T05:20:22.389Z,994.12
2018-06-25T05:21:22.822Z,994.14
2018-06-25T05:22:22.773Z,994.12
2018-06-25T05:23:23.054Z,994.12
2018-06-25T05:24:23.185Z,994.09
2018-06-25T05:25:23.311Z,994.10
2018-06-25T05:26:23.543Z,994.10
2018-06-25T05:27:23.741Z,994.11
2018-06-25T05:28:23.864Z,994.08
2018-06-25T05:29:24.152Z,994.09
2018-06-25T05:30:24.251Z,994.11
2018-06-25T05:31:24.460Z,994.07
2018-06-25T05:32:24.566Z,994.15
2018-06-25T05:33:24.735Z,994.14
2018-06-25T05:34:24.839Z,994.14
2018-06-25T05:35:25.048Z,994.12
2018-06-25T05:36:25.299Z,994.16
2018-06-25T05:37:25.456Z,994.15
2018-06-25T05:38:25.591Z,994.17
2018-06-25T05:39:25.874Z,994.17
2018-06-25T05:40:25.961Z,994.17
2018-06-25T05:41:26.115Z,994.17
2018-06-25T05:42:26.308Z,994.14
2018-06-25T05:43:26.438Z,994.16
2018-06-25T05:44:26.533Z,994.16
2018-06-25T05:45:26.735Z,994.14
2018-06-25T05:46:26.918Z,994.17
2018-06-25T05:47:27.055Z,994.16
2018-06-25T05:48:27.323Z,994.18
2018-06-25T05:49:27.456Z,994.22
2018-06-25T05:50:27.601Z,994.21
2018-06-25T05:51:27.770Z,994.18
2018-06-25T05:52:27.972Z,994.18
2018-06-25T05:53:31.140Z,994.20
2018-06-25T05:54:28.387Z,994.18
2018-06-25T05:55:28.604Z,994.18
2018-06-25T05:56:30.166Z,994.26
2018-06-25T06:01:36.713Z,994.32
2018-06-25T06:02:39.626Z,994.34
2018-06-25T06:03:37.394Z,994.31
2018-06-25T06:04:35.986Z,994.35
2018-06-25T06:05:36.103Z,994.32
2018-06-25T06:06:36.332Z,994.33
2018-06-25T06:07:36.371Z,994.35
2018-06-25T06:08:36.603Z,994.35
2018-06-25T06:09:36.802Z,994.35
2018-06-25T06:10:36.929Z,994.38
2018-06-25T06:11:37.151Z,994.36
2018-06-25T06:12:37.304Z,994.40
2018-06-25T06:13:37.421Z,994.41
2018-06-25T06:14:37.773Z,994.45
2018-06-25T06:15:37.656Z,994.41
2018-06-25T06:16:37.911Z,994.45
2018-06-25T06:17:38.019Z,994.46
2018-06-25T06:18:38.273Z,994.43
2018-06-25T06:19:38.493Z,994.44
2018-06-25T06:20:38.598Z,994.46
2018-06-25T06:21:38.788Z,994.46
2018-06-25T06:22:38.962Z,994.41
2018-06-25T06:23:39.075Z,994.42
2018-06-25T06:24:39.340Z,994.41
2018-06-25T06:25:40.247Z,994.43
2018-06-25T06:26:39.553Z,994.46
2018-06-25T06:27:39.957Z,994.43
2018-06-25T06:28:40.759Z,994.46
2018-06-25T06:29:41.257Z,994.46
2018-06-25T06:30:40.509Z,994.44
2018-06-25T06:31:40.429Z,994.47
2018-06-25T06:32:40.666Z,994.53
2018-06-25T06:33:40.776Z,994.51
2018-06-25T06:34:41.095Z,994.56
2018-06-25T06:35:51.698Z,994.53
2018-06-25T06:38:47.173Z,994.57
2018-06-25T06:39:44.604Z,994.55
2018-06-25T06:40:42.614Z,994.53
2018-06-25T06:41:42.333Z,994.55
2018-06-25T06:42:55.179Z,994.57
2018-06-25T06:43:51.643Z,994.56
2018-06-25T06:44:43.365Z,994.59
2018-06-25T06:45:43.016Z,994.61
2018-06-25T06:46:47.562Z,994.62
2018-06-25T06:47:53.727Z,994.66
2018-06-25T06:48:45.228Z,994.59
2018-06-25T06:49:43.867Z,994.67
2018-06-25T06:50:43.729Z,994.70
2018-06-25T06:51:43.974Z,994.70
2018-06-25T06:52:44.060Z,994.70
2018-06-25T06:53:44.243Z,994.72
2018-06-25T06:54:44.375Z,994.72
2018-06-25T06:55:44.588Z,994.74
2018-06-25T06:56:44.794Z,994.74
2018-06-25T06:57:44.999Z,994.72
2018-06-25T06:58:45.946Z,994.73
2018-06-25T06:59:45.234Z,994.76
2018-06-25T07:00:45.432Z,994.74
2018-06-25T07:01:45.638Z,994.73
2018-06-25T07:02:45.807Z,994.75
2018-06-25T07:03:45.902Z,994.76
2018-06-25T07:04:46.158Z,994.74
2018-06-25T07:05:46.322Z,994.74
2018-06-25T07:06:46.459Z,994.74
2018-06-25T07:07:46.573Z,994.75
2018-06-25T07:08:46.825Z,994.73
2018-06-25T07:09:47.034Z,994.74
2018-06-25T07:10:47.213Z,994.71
2018-06-25T07:11:47.366Z,994.70
2018-06-25T07:12:47.492Z,994.76
2018-06-25T07:13:47.700Z,994.74
2018-06-25T07:14:47.957Z,994.80
2018-06-25T07:15:48.064Z,994.80
2018-06-25T07:16:48.198Z,994.78
2018-06-25T07:17:48.365Z,994.76
2018-06-25T07:18:48.705Z,994.77
2018-06-25T07:19:48.825Z,994.81
2018-06-25T07:20:49.026Z,994.81
2018-06-25T07:21:49.136Z,994.82
2018-06-25T07:22:49.296Z,994.85
2018-06-25T07:23:49.512Z,994.83
2018-06-25T07:24:49.697Z,994.84
2018-06-25T07:25:49.858Z,994.85
2018-06-25T07:26:49.948Z,994.85
2018-06-25T07:27:50.131Z,994.82
2018-06-25T07:28:50.380Z,994.85
2018-06-25T07:29:50.520Z,994.84
2018-06-25T07:30:50.722Z,994.87
2018-06-25T07:31:50.934Z,994.90
2018-06-25T07:32:51.103Z,994.89
2018-06-25T07:33:51.195Z,994.89
2018-06-25T07:34:51.440Z,994.93
2018-06-25T07:35:51.481Z,994.91
2018-06-25T07:36:51.703Z,994.90
2018-06-25T07:37:51.936Z,994.93
2018-06-25T07:38:52.065Z,994.95
2018-06-25T07:39:52.275Z,994.95
2018-06-25T07:40:53.405Z,994.94
2018-06-25T07:41:52.891Z,994.93
2018-06-25T07:42:52.713Z,994.93
2018-06-25T07:43:53.004Z,994.91
2018-06-25T07:44:53.144Z,994.93
2018-06-25T07:45:53.300Z,994.89
2018-06-25T07:46:53.445Z,994.89
2018-06-25T07:47:53.660Z,994.90
2018-06-25T07:48:53.793Z,994.85
2018-06-25T07:49:53.985Z,994.91
2018-06-25T07:50:54.286Z,994.90
2018-06-25T07:51:54.348Z,994.88
2018-06-25T07:52:54.607Z,994.88
2018-06-25T07:53:54.836Z,994.91
2018-06-25T07:54:54.992Z,994.88
2018-06-25T07:55:55.167Z,994.90
2018-06-25T07:56:55.343Z,994.87
2018-06-25T07:57:55.480Z,994.92
2018-06-25T07:58:55.585Z,994.94
2018-06-25T07:59:55.837Z,994.91
2018-06-25T08:00:56.022Z,994.86
2018-06-25T08:01:56.094Z,994.90
2018-06-25T08:02:56.300Z,994.90
2018-06-25T08:03:56.444Z,994.95
2018-06-25T08:04:56.637Z,994.95
2018-06-25T08:05:56.827Z,995.04
2018-06-25T08:06:57.038Z,994.98
2018-06-25T08:07:57.211Z,995.03
2018-06-25T08:08:57.355Z,994.99
2018-06-25T08:09:57.550Z,994.95
2018-06-25T08:10:57.651Z,994.93
2018-06-25T08:11:57.867Z,994.96
2018-06-25T08:12:58.051Z,994.98
2018-06-25T08:13:58.905Z,995.00
2018-06-25T08:14:58.451Z,994.97
2018-06-25T08:15:58.707Z,995.01
2018-06-25T08:16:58.791Z,995.00
2018-06-25T08:17:59.005Z,995.02
2018-06-25T08:18:59.089Z,995.06
2018-06-25T08:19:59.441Z,995.08
2018-06-25T08:20:59.514Z,995.07
2018-06-25T08:21:59.747Z,995.07
2018-06-25T08:23:00.013Z,995.11
2018-06-25T08:24:00.165Z,995.09
2018-06-25T08:25:00.270Z,995.16
2018-06-25T08:26:00.418Z,995.13
2018-06-25T08:27:00.572Z,995.21
2018-06-25T08:28:00.841Z,995.20
2018-06-25T08:29:00.978Z,995.27
2018-06-25T08:30:01.403Z,995.23
2018-06-25T08:31:01.320Z,995.24
2018-06-25T08:32:01.419Z,995.30
2018-06-25T08:33:01.594Z,995.25
2018-06-25T08:34:01.779Z,995.29
2018-06-25T08:35:02.115Z,995.28
2018-06-25T08:36:02.207Z,995.28
2018-06-25T08:37:02.330Z,995.30
2018-06-25T08:38:02.464Z,995.25
2018-06-25T08:39:02.582Z,995.27
2018-06-25T08:40:02.808Z,995.30
2018-06-25T08:41:02.992Z,995.28
2018-06-25T08:42:03.113Z,995.30
2018-06-25T08:43:03.405Z,995.29
2018-06-25T08:44:03.534Z,995.29
2018-06-25T08:45:03.675Z,995.31
2018-06-25T08:46:03.874Z,995.34
2018-06-25T08:47:04.084Z,995.34
2018-06-25T08:48:04.152Z,995.37
2018-06-25T08:49:04.350Z,995.40
2018-06-25T08:50:04.600Z,995.41
2018-06-25T08:51:04.706Z,995.38
2018-06-25T08:52:05.013Z,995.42
2018-06-25T08:53:07.159Z,995.45
2018-06-25T08:54:05.233Z,995.41
2018-06-25T08:55:05.509Z,995.42
2018-06-25T08:56:10.859Z,995.39
2018-06-25T08:57:05.817Z,995.44
2018-06-25T08:58:06.064Z,995.39
2018-06-25T08:59:06.181Z,995.39
2018-06-25T09:00:06.286Z,995.41
2018-06-25T09:01:06.521Z,995.45
2018-06-25T09:02:06.738Z,995.40
2018-06-25T09:03:06.927Z,995.42
2018-06-25T09:04:06.991Z,995.42
2018-06-25T09:05:07.231Z,995.43
2018-06-25T09:06:07.349Z,995.46
2018-06-25T09:07:07.568Z,995.44
2018-06-25T09:08:07.702Z,995.46
2018-06-25T09:09:07.899Z,995.46
2018-06-25T09:10:08.126Z,995.47
2018-06-25T09:11:08.234Z,995.49
2018-06-25T09:12:08.463Z,995.46
2018-06-25T09:13:08.610Z,995.44
2018-06-25T09:14:08.715Z,995.49
2018-06-25T09:15:08.964Z,995.46
2018-06-25T09:16:09.112Z,995.45
2018-06-25T09:17:09.256Z,995.41
2018-06-25T09:18:09.400Z,995.46
2018-06-25T09:19:09.613Z,995.44
2018-06-25T09:20:09.829Z,995.47
2018-06-25T09:21:09.897Z,995.47
2018-06-25T09:22:10.052Z,995.46
2018-06-25T09:23:10.291Z,995.45
2018-06-25T09:24:10.456Z,995.50
2018-06-25T09:25:10.602Z,995.48
2018-06-25T09:26:10.745Z,995.42
2018-06-25T09:27:10.957Z,995.47
2018-06-25T09:28:11.169Z,995.41
2018-06-25T09:29:18.188Z,995.41
2018-06-25T09:30:11.515Z,995.42
2018-06-25T09:31:11.754Z,995.41
2018-06-25T09:32:11.948Z,995.43
2018-06-25T09:33:12.029Z,995.45
2018-06-25T09:34:12.176Z,995.45
2018-06-25T09:35:12.468Z,995.47
2018-06-25T09:36:12.555Z,995.44
2018-06-25T09:37:12.767Z,995.44
2018-06-25T09:38:12.999Z,995.48
2018-06-25T09:39:12.999Z,995.45
2018-06-25T09:40:13.148Z,995.45
2018-06-25T09:41:13.430Z,995.44
2018-06-25T09:42:13.565Z,995.36
2018-06-25T09:43:13.796Z,995.40
2018-06-25T09:44:14.081Z,995.36
2018-06-25T09:45:14.218Z,995.40
2018-06-25T09:46:14.332Z,995.39
2018-06-25T09:47:14.584Z,995.39
2018-06-25T09:48:14.792Z,995.39
2018-06-25T09:49:15.061Z,995.40
2018-06-25T09:50:15.180Z,995.45
2018-06-25T09:51:15.393Z,995.43
2018-06-25T09:52:15.641Z,995.38
2018-06-25T09:53:15.646Z,995.41
2018-06-25T09:54:15.869Z,995.45
2018-06-25T09:55:15.987Z,995.44
2018-06-25T09:56:16.291Z,995.46
2018-06-25T09:57:16.356Z,995.46
2018-06-25T09:58:16.491Z,995.45
2018-06-25T09:59:16.701Z,995.41
2018-06-25T10:00:16.830Z,995.44
2018-06-25T10:01:16.976Z,995.41
2018-06-25T10:02:17.229Z,995.40
2018-06-25T10:03:17.356Z,995.42
2018-06-25T10:04:17.538Z,995.48
2018-06-25T10:05:17.620Z,995.43
2018-06-25T10:06:17.862Z,995.43
2018-06-25T10:07:18.014Z,995.41
2018-06-25T10:08:18.147Z,995.39
2018-06-25T10:09:18.360Z,995.37
2018-06-25T10:10:18.490Z,995.33
2018-06-25T10:11:18.752Z,995.38
2018-06-25T10:12:18.907Z,995.36
2018-06-25T10:13:19.208Z,995.32
2018-06-25T10:14:19.313Z,995.31
2018-06-25T10:15:19.503Z,995.37
2018-06-25T10:16:19.690Z,995.36
2018-06-25T10:17:20.001Z,995.43
2018-06-25T10:18:20.036Z,995.37
2018-06-25T10:19:20.178Z,995.32
2018-06-25T10:20:20.296Z,995.36
2018-06-25T10:21:20.524Z,995.35
2018-06-25T10:22:20.737Z,995.34
2018-06-25T10:23:20.868Z,995.37
2018-06-25T10:24:21.063Z,995.38
2018-06-25T10:25:21.191Z,995.37
2018-06-25T10:26:21.331Z,995.75
2018-06-25T10:27:21.563Z,995.78
2018-06-25T10:28:21.741Z,995.79
2018-06-25T10:29:21.990Z,995.75
2018-06-25T10:30:22.092Z,995.77
2018-06-25T10:31:22.278Z,995.56
2018-06-25T10:32:22.462Z,995.35
2018-06-25T10:33:22.624Z,995.37
2018-06-25T10:34:22.854Z,995.43
2018-06-25T10:35:22.998Z,995.46
2018-06-25T10:36:23.156Z,995.46
2018-06-25T10:37:23.332Z,995.47
2018-06-25T10:38:23.509Z,995.49
2018-06-25T10:39:23.690Z,995.51
2018-06-25T10:40:23.879Z,995.43
2018-06-25T10:41:24.008Z,995.51
2018-06-25T10:42:24.234Z,995.79
2018-06-25T10:43:24.339Z,995.58
2018-06-25T10:44:24.461Z,995.53
2018-06-25T10:45:24.716Z,995.54
2018-06-25T10:46:24.805Z,995.93
2018-06-25T10:47:25.016Z,996.04
2018-06-25T10:48:25.236Z,995.62
2018-06-25T10:49:25.455Z,995.57
2018-06-25T10:50:25.627Z,995.72
2018-06-25T10:51:25.794Z,996.05
2018-06-25T10:52:25.955Z,995.51
2018-06-25T10:53:26.039Z,995.53
2018-06-25T10:54:26.324Z,996.53
2018-06-25T10:55:26.479Z,996.61
2018-06-25T10:56:26.628Z,996.46
2018-06-25T10:57:26.855Z,996.32
2018-06-25T10:58:26.960Z,995.50
2018-06-25T10:59:27.203Z,995.43
2018-06-25T11:00:27.327Z,995.41
2018-06-25T11:01:27.518Z,995.56
2018-06-25T11:02:27.795Z,995.66
2018-06-25T11:03:27.802Z,995.49
2018-06-25T11:04:28.127Z,995.43
2018-06-25T11:05:28.220Z,995.95
2018-06-25T11:06:28.347Z,995.99
2018-06-25T11:07:28.612Z,996.67
2018-06-25T11:08:28.676Z,996.31
2018-06-25T11:09:28.800Z,995.75
2018-06-25T11:10:29.003Z,995.94
2018-06-25T11:13:10.228Z,995.86
2018-06-25T11:14:22.475Z,995.71
2018-06-25T11:16:18.407Z,995.53
2018-06-25T11:18:12.655Z,995.65
2018-06-25T11:19:11.457Z,995.58
2018-06-25T11:20:11.467Z,995.60
2018-06-25T11:21:11.592Z,995.64
2018-06-25T11:22:11.875Z,996.45
2018-06-25T11:23:12.459Z,995.60
2018-06-25T11:24:12.453Z,995.44
2018-06-25T11:25:12.520Z,995.46
2018-06-25T11:26:12.559Z,995.43
2018-06-25T11:27:12.860Z,995.47
2018-06-25T11:30:12.494Z,995.75
2018-06-25T11:31:13.795Z,996.21
2018-06-25T11:32:12.785Z,996.36
2018-06-25T11:33:12.160Z,995.85
2018-06-25T11:34:12.307Z,996.03
2018-06-25T11:35:12.575Z,996.18
2018-06-25T11:36:12.768Z,996.50
2018-06-25T11:37:12.937Z,995.80
2018-06-25T11:38:15.221Z,996.04
2018-06-25T11:39:14.158Z,995.92
2018-06-25T11:40:13.397Z,995.70
2018-06-25T11:42:56.699Z,995.72
2018-06-25T11:43:57.628Z,995.81
2018-06-25T11:44:57.159Z,995.84
2018-06-25T11:45:59.187Z,995.79
2018-06-25T11:46:56.857Z,995.74
2018-06-25T11:47:59.644Z,995.95
2018-06-25T11:48:55.860Z,995.88
2018-06-25T11:49:56.005Z,995.87
2018-06-25T11:50:56.245Z,995.91
2018-06-25T11:51:56.381Z,995.63
2018-06-25T11:52:56.618Z,995.44
2018-06-25T11:53:56.715Z,995.41
2018-06-25T11:54:56.934Z,995.43
2018-06-25T11:55:57.202Z,995.41
2018-06-25T11:56:57.344Z,995.41
2018-06-25T11:57:57.475Z,995.39
2018-06-25T11:58:57.696Z,995.38
2018-06-25T11:59:57.810Z,995.38
2018-06-25T12:00:58.011Z,995.45
2018-06-25T12:01:58.328Z,995.50
2018-06-25T12:02:58.509Z,995.51
2018-06-25T12:03:58.529Z,995.51
2018-06-25T12:04:58.749Z,995.48
2018-06-25T12:05:58.971Z,995.44
2018-06-25T12:06:59.160Z,995.46
2018-06-25T12:07:59.331Z,995.40
2018-06-25T12:08:59.515Z,995.42
2018-06-25T12:09:59.768Z,995.58
2018-06-25T12:10:59.872Z,996.00
2018-06-25T12:12:00.041Z,996.27
2018-06-25T12:13:00.294Z,996.52
2018-06-25T12:14:00.455Z,996.18
2018-06-25T12:15:00.512Z,995.87
2018-06-25T12:16:00.823Z,995.74
2018-06-25T12:17:00.983Z,995.66
2018-06-25T12:18:01.165Z,995.59
2018-06-25T12:19:01.343Z,995.60
2018-06-25T12:20:01.514Z,995.51
2018-06-25T12:21:01.742Z,995.50
2018-06-25T12:22:01.788Z,995.56
2018-06-25T12:23:01.995Z,995.68
2018-06-25T12:24:02.307Z,995.65
2018-06-25T12:25:02.381Z,995.60
2018-06-25T12:26:02.653Z,995.54
2018-06-25T12:27:02.802Z,995.53
2018-06-25T12:28:03.373Z,995.63
2018-06-25T12:31:07.399Z,995.47
2018-06-25T12:32:07.842Z,995.58
2018-06-25T12:33:07.796Z,995.59
2018-06-25T12:34:05.612Z,995.54
2018-06-25T12:35:05.876Z,995.41
2018-06-25T12:36:05.937Z,995.69
2018-06-25T12:37:06.217Z,995.41
2018-06-25T12:38:06.459Z,995.37
2018-06-25T12:39:06.747Z,995.43
2018-06-25T12:40:06.853Z,995.34
2018-06-25T12:41:08.110Z,995.63
2018-06-25T12:42:11.360Z,995.49
2018-06-25T12:44:00.792Z,995.71
2018-06-25T12:44:16.500Z,995.49
2018-06-25T12:46:18.259Z,995.59
2018-06-25T12:49:45.484Z,995.54
2018-06-25T12:50:46.126Z,995.55
2018-06-25T12:54:58.080Z,995.44
2018-06-25T12:56:23.862Z,995.44
2018-06-25T12:56:55.675Z,995.50
2018-06-25T12:58:05.929Z,995.44
2018-06-25T13:03:30.369Z,995.44
2018-06-25T13:04:53.837Z,995.45
2018-06-25T13:06:00.378Z,995.42
2018-06-25T13:06:18.915Z,995.42
2018-06-25T13:12:47.516Z,995.47
2018-06-25T13:16:05.774Z,995.60
2018-06-25T13:16:32.261Z,995.85
2018-06-25T13:17:13.512Z,995.62
2018-06-25T13:20:08.930Z,995.69
2018-06-25T13:21:08.630Z,995.58
2018-06-25T13:22:51.369Z,995.58
2018-06-25T13:23:07.929Z,995.50
2018-06-25T13:24:10.048Z,995.67
2018-06-25T13:25:06.859Z,995.51
2018-06-25T13:26:04.636Z,995.49
2018-06-25T13:27:04.611Z,995.55
2018-06-25T13:28:04.314Z,995.55
2018-06-25T13:29:05.312Z,995.57
2018-06-25T13:30:04.830Z,995.56
2018-06-25T13:31:05.145Z,995.61
2018-06-25T13:32:05.446Z,995.53
2018-06-25T13:33:05.969Z,995.52
2018-06-25T13:34:05.540Z,995.56
2018-06-25T13:35:05.581Z,995.52
2018-06-25T13:36:06.527Z,995.54
2018-06-25T13:37:06.963Z,995.56
2018-06-25T13:38:06.640Z,995.56
2018-06-25T13:39:06.661Z,995.62
2018-06-25T13:40:06.608Z,995.76
2018-06-25T13:41:07.024Z,995.79
2018-06-25T13:42:07.662Z,995.71
2018-06-25T13:43:10.212Z,995.81
2018-06-25T13:44:08.329Z,995.62
2018-06-25T13:45:07.680Z,995.68
2018-06-25T13:46:07.594Z,995.65
2018-06-25T13:47:08.040Z,995.63
2018-06-25T13:48:09.023Z,995.57
2018-06-25T13:49:08.706Z,995.62
2018-06-25T13:50:10.097Z,995.59
2018-06-25T13:51:08.887Z,995.57
2018-06-25T13:52:08.561Z,995.49
2018-06-25T13:53:09.273Z,995.53
2018-06-25T13:54:10.876Z,995.54
2018-06-25T13:55:10.219Z,995.55
2018-06-25T13:56:09.728Z,995.60
2018-06-25T13:57:10.014Z,995.57
2018-06-25T13:58:10.648Z,995.63
2018-06-25T13:59:10.576Z,995.60
2018-06-25T14:00:10.350Z,995.62
2018-06-25T14:01:10.826Z,995.66
2018-06-25T14:02:11.152Z,995.65
2018-06-25T14:03:11.633Z,995.66
2018-06-25T14:04:11.392Z,995.68
2018-06-25T14:05:11.663Z,995.66
2018-06-25T14:06:11.335Z,995.64
2018-06-25T14:07:13.707Z,995.60
2018-06-25T14:41:08.978Z,995.50
2018-06-25T14:42:25.233Z,995.48
2018-06-25T14:43:11.949Z,995.53
2018-06-25T14:44:12.254Z,995.56
2018-06-25T14:46:14.497Z,995.56
2018-06-25T14:48:34.459Z,995.61
2018-06-25T14:50:30.432Z,995.65
2018-06-25T14:51:26.452Z,995.67
2018-06-25T14:55:06.575Z,995.72
2018-06-25T14:56:03.108Z,995.69
2018-06-25T14:57:05.051Z,995.69
2018-06-25T20:05:18.930Z,995.73
2018-06-25T20:06:23.807Z,995.70
2018-06-25T20:08:24.359Z,995.68
2018-06-25T20:09:19.628Z,995.68
2018-06-25T20:10:19.735Z,995.71
2018-06-25T20:11:19.686Z,995.72
2018-06-25T20:12:20.194Z,995.70
2018-06-25T20:13:20.499Z,995.73
2018-06-25T20:14:20.366Z,995.69
2018-06-25T20:15:20.611Z,995.73
2018-06-25T20:16:20.621Z,995.67
2018-06-25T20:17:20.794Z,995.71
2018-06-25T20:18:20.821Z,995.66
2018-06-25T20:19:20.959Z,995.72
2018-06-25T20:20:21.560Z,995.68
2018-06-25T20:21:22.052Z,995.73
2018-06-25T20:22:22.113Z,995.71
2018-06-25T20:23:21.721Z,995.69
2018-06-25T20:24:22.136Z,995.71
2018-06-25T20:25:22.106Z,995.74
2018-06-25T20:26:22.181Z,995.66
2018-06-25T20:27:22.411Z,995.69
2018-06-25T20:28:22.738Z,995.74
2018-06-25T20:29:23.438Z,995.72
2018-06-25T20:30:23.981Z,995.71
2018-06-25T20:31:23.710Z,995.71
